createdAt,value
2018-12-15T00:01:08.819Z,12.17
2018-12-15T00:03:36.437Z,12.20
2018-12-15T00:06:04.169Z,12.33
2018-12-15T00:08:32.697Z,13.17
2018-12-15T00:11:00.326Z,12.17
2018-12-15T00:13:28.058Z,12.53
2018-12-15T00:15:55.466Z,12.50
2018-12-15T00:18:23.084Z,12.37
2018-12-15T00:20:50.585Z,12.13
2018-12-15T00:23:18.095Z,12.30
2018-12-15T00:25:45.560Z,13.17
2018-12-15T00:28:13.023Z,12.90
2018-12-15T00:30:40.500Z,12.07
2018-12-15T00:33:07.975Z,11.47
2018-12-15T00:35:35.402Z,13.57
2018-12-15T00:38:02.874Z,12.10
2018-12-15T00:40:30.391Z,11.83
2018-12-15T00:42:57.858Z,12.00
2018-12-15T00:45:25.354Z,11.10
2018-12-15T00:47:52.816Z,11.83
2018-12-15T00:50:20.287Z,11.77
2018-12-15T00:52:47.735Z,10.80
2018-12-15T00:55:15.165Z,12.20
2018-12-15T00:57:43.235Z,12.33
2018-12-15T01:00:11.154Z,12.23
2018-12-15T01:02:38.907Z,12.47
2018-12-15T01:05:06.629Z,12.20
2018-12-15T01:07:35.278Z,11.33
2018-12-15T01:10:03.087Z,11.90
2018-12-15T01:12:30.582Z,12.53
2018-12-15T01:14:58.251Z,12.20
2018-12-15T01:17:25.776Z,11.43
2018-12-15T01:19:53.219Z,11.67
2018-12-15T01:22:20.655Z,12.53
2018-12-15T01:24:48.220Z,12.03
2018-12-15T01:27:15.715Z,11.60
2018-12-15T01:29:43.231Z,11.60
2018-12-15T01:32:10.775Z,12.83
2018-12-15T01:34:38.876Z,11.43
2018-12-15T01:37:07.033Z,12.77
2018-12-15T01:39:34.803Z,11.40
2018-12-15T01:42:02.252Z,12.50
2018-12-15T01:44:29.754Z,10.57
2018-12-15T01:46:57.493Z,10.53
2018-12-15T01:49:25.155Z,11.87
2018-12-15T01:51:52.736Z,10.40
2018-12-15T01:54:20.199Z,11.07
2018-12-15T01:56:47.725Z,12.33
2018-12-15T01:59:15.244Z,11.73
2018-12-15T02:01:42.750Z,11.43
2018-12-15T02:04:10.522Z,12.37
2018-12-15T02:06:38.119Z,11.90
2018-12-15T02:09:06.185Z,11.50
2018-12-15T02:11:33.734Z,12.57
2018-12-15T02:14:01.415Z,12.67
2018-12-15T02:16:28.987Z,11.47
2018-12-15T02:18:56.583Z,12.17
2018-12-15T02:21:24.125Z,12.47
2018-12-15T02:23:51.891Z,12.57
2018-12-15T02:26:19.466Z,12.37
2018-12-15T02:28:46.961Z,12.60
2018-12-15T02:31:14.433Z,12.03
2018-12-15T02:33:42.003Z,12.03
2018-12-15T02:36:09.548Z,11.70
2018-12-15T02:38:37.127Z,12.00
2018-12-15T02:41:04.876Z,13.70
2018-12-15T02:43:32.591Z,12.93
2018-12-15T02:46:00.064Z,11.80
2018-12-15T02:48:27.824Z,11.87
2018-12-15T02:50:55.492Z,11.60
2018-12-15T02:53:22.971Z,12.10
2018-12-15T02:55:50.745Z,12.20
2018-12-15T02:58:18.539Z,11.27
2018-12-15T03:00:46.081Z,12.10
2018-12-15T03:03:13.651Z,11.67
2018-12-15T03:05:41.290Z,12.77
2018-12-15T03:08:08.793Z,12.93
2018-12-15T03:10:36.266Z,12.30
2018-12-15T03:13:03.863Z,11.60
2018-12-15T03:15:31.388Z,11.47
2018-12-15T03:17:58.913Z,12.07
2018-12-15T03:20:26.507Z,11.77
2018-12-15T03:22:53.955Z,11.97
2018-12-15T03:25:21.438Z,13.47
2018-12-15T03:27:48.993Z,11.67
2018-12-15T03:30:16.597Z,11.70
2018-12-15T03:32:44.117Z,11.63
2018-12-15T03:35:11.664Z,12.23
2018-12-15T03:37:39.117Z,12.07
2018-12-15T03:40:06.559Z,11.70
2018-12-15T03:42:34.083Z,12.20
2018-12-15T03:45:01.553Z,11.93
2018-12-15T03:47:29.050Z,12.10
2018-12-15T03:49:56.580Z,12.73
2018-12-15T03:52:24.163Z,12.33
2018-12-15T03:54:51.730Z,13.27
2018-12-15T03:57:19.399Z,12.57
2018-12-15T03:59:46.870Z,11.47
2018-12-15T04:02:14.451Z,12.33
2018-12-15T04:04:42.270Z,12.67
2018-12-15T04:07:09.742Z,11.50
2018-12-15T04:09:37.226Z,11.13
2018-12-15T04:12:04.747Z,12.40
2018-12-15T04:14:32.240Z,11.57
2018-12-15T04:16:59.753Z,11.57
2018-12-15T04:19:27.220Z,11.60
2018-12-15T04:22:19.983Z,11.50
2018-12-15T04:24:47.752Z,11.77
2018-12-15T04:27:15.282Z,12.47
2018-12-15T04:29:42.719Z,12.10
2018-12-15T04:32:10.156Z,11.60
2018-12-15T04:34:37.668Z,12.07
2018-12-15T04:37:05.150Z,12.03
2018-12-15T04:39:32.685Z,11.33
2018-12-15T04:42:00.209Z,11.20
2018-12-15T04:44:27.692Z,12.30
2018-12-15T04:46:55.183Z,11.50
2018-12-15T04:49:22.759Z,11.43
2018-12-15T04:51:50.284Z,11.17
2018-12-15T04:56:58.847Z,10.30
2018-12-15T04:59:26.393Z,9.63
2018-12-15T05:01:53.898Z,11.77
2018-12-15T05:04:21.438Z,11.27
2018-12-15T05:06:48.973Z,11.37
2018-12-15T05:09:16.702Z,11.63
2018-12-15T05:11:44.426Z,11.00
2018-12-15T05:14:11.912Z,12.70
2018-12-15T05:16:39.532Z,10.70
2018-12-15T05:19:07.182Z,11.27
2018-12-15T05:21:34.793Z,11.50
2018-12-15T05:24:02.382Z,12.30
2018-12-15T05:26:29.898Z,11.20
2018-12-15T05:28:57.547Z,11.30
2018-12-15T05:31:25.111Z,10.27
2018-12-15T05:33:52.695Z,11.07
2018-12-15T05:36:20.223Z,11.07
2018-12-15T05:38:47.715Z,10.40
2018-12-15T05:41:15.174Z,10.80
2018-12-15T05:43:42.681Z,11.03
2018-12-15T05:46:10.204Z,10.50
2018-12-15T05:48:37.732Z,10.50
2018-12-15T05:51:05.245Z,11.70
2018-12-15T05:53:32.759Z,11.40
2018-12-15T05:56:00.666Z,11.37
2018-12-15T05:58:28.100Z,12.33
2018-12-15T06:00:55.497Z,11.67
2018-12-15T06:03:22.893Z,11.57
2018-12-15T06:05:50.501Z,12.50
2018-12-15T06:08:18.118Z,12.37
2018-12-15T06:10:45.587Z,11.60
2018-12-15T06:13:13.093Z,12.03
2018-12-15T06:15:40.626Z,11.33
2018-12-15T06:18:08.127Z,11.27
2018-12-15T06:20:35.607Z,11.43
2018-12-15T06:23:03.001Z,12.63
2018-12-15T06:25:30.463Z,11.17
2018-12-15T06:27:57.905Z,10.73
2018-12-15T06:30:25.461Z,10.13
2018-12-15T06:32:52.935Z,8.50
2018-12-15T06:35:20.711Z,9.43
2018-12-15T06:37:48.300Z,8.17
2018-12-15T06:40:15.794Z,8.40
2018-12-15T06:42:43.273Z,8.50
2018-12-15T06:45:10.837Z,8.70
2018-12-15T06:47:38.341Z,9.97
2018-12-15T06:50:05.872Z,8.77
2018-12-15T06:52:33.854Z,9.00
2018-12-15T06:55:01.389Z,8.80
2018-12-15T06:57:28.749Z,9.20
2018-12-15T06:59:56.214Z,9.23
2018-12-15T07:02:23.699Z,7.97
2018-12-15T07:04:51.248Z,8.43
2018-12-15T07:07:18.702Z,9.17
2018-12-15T07:09:46.308Z,9.67
2018-12-15T07:12:14.142Z,8.90
2018-12-15T07:14:41.663Z,8.33
2018-12-15T07:17:09.275Z,9.97
2018-12-15T07:19:36.718Z,8.60
2018-12-15T07:22:04.261Z,8.40
2018-12-15T07:24:31.670Z,8.60
2018-12-15T07:26:59.182Z,8.13
2018-12-15T07:29:26.682Z,8.27
2018-12-15T07:31:54.274Z,7.57
2018-12-15T07:34:21.774Z,7.77
2018-12-15T07:36:49.212Z,8.70
2018-12-15T07:39:16.843Z,8.20
2018-12-15T07:41:44.249Z,7.97
2018-12-15T07:44:11.718Z,8.10
2018-12-15T07:46:39.217Z,8.30
2018-12-15T07:49:06.664Z,8.87
2018-12-15T07:51:34.158Z,8.83
2018-12-15T07:54:01.659Z,7.93
2018-12-15T07:56:29.207Z,8.20
2018-12-15T07:58:56.663Z,8.80
2018-12-15T08:01:24.195Z,8.90
2018-12-15T08:03:51.746Z,8.87
2018-12-15T08:06:19.359Z,8.33
2018-12-15T08:08:47.035Z,8.33
2018-12-15T08:11:20.139Z,7.87
2018-12-15T08:13:47.640Z,8.17
2018-12-15T08:16:15.117Z,8.27
2018-12-15T08:18:43.161Z,8.80
2018-12-15T08:21:10.758Z,9.93
2018-12-15T08:23:38.227Z,9.03
2018-12-15T08:26:05.693Z,8.80
2018-12-15T08:28:33.250Z,9.40
2018-12-15T08:31:00.797Z,9.67
2018-12-15T08:33:28.304Z,9.40
2018-12-15T08:35:55.801Z,9.67
2018-12-15T08:38:23.274Z,10.17
2018-12-15T08:40:50.749Z,10.00
2018-12-15T08:43:18.184Z,10.77
2018-12-15T08:45:45.770Z,9.40
2018-12-15T08:48:13.203Z,9.57
2018-12-15T08:50:44.361Z,11.50
2018-12-15T08:53:11.959Z,11.97
2018-12-15T08:55:39.540Z,10.73
2018-12-15T08:58:06.938Z,10.70
2018-12-15T09:00:34.662Z,10.60
2018-12-15T09:03:02.270Z,9.80
2018-12-15T09:05:29.846Z,12.10
2018-12-15T09:07:57.447Z,9.70
2018-12-15T09:10:25.026Z,9.90
2018-12-15T09:12:52.696Z,10.10
2018-12-15T09:15:20.323Z,9.30
2018-12-15T09:17:47.994Z,11.37
2018-12-15T09:20:15.462Z,11.90
2018-12-15T09:22:42.990Z,11.60
2018-12-15T09:25:10.552Z,11.10
2018-12-15T09:27:38.168Z,10.17
2018-12-15T09:30:06.988Z,10.13
2018-12-15T09:32:34.545Z,10.47
2018-12-15T09:35:02.131Z,11.07
2018-12-15T09:37:29.693Z,10.13
2018-12-15T09:39:57.289Z,10.93
2018-12-15T09:42:24.976Z,11.47
2018-12-15T09:44:52.528Z,11.47
2018-12-15T09:47:20.081Z,10.27
2018-12-15T09:49:47.701Z,11.87
2018-12-15T09:52:18.009Z,10.93
2018-12-15T09:54:46.069Z,11.47
2018-12-15T09:57:13.681Z,9.97
2018-12-15T09:59:41.198Z,11.10
2018-12-15T10:02:08.864Z,11.47
2018-12-15T10:04:36.363Z,11.10
2018-12-15T10:07:03.873Z,11.10
2018-12-15T10:09:31.415Z,12.87
2018-12-15T10:11:58.866Z,11.37
2018-12-15T10:14:26.374Z,11.40
2018-12-15T10:16:53.949Z,11.40
2018-12-15T10:19:24.316Z,10.93
2018-12-15T10:21:50.999Z,11.20
2018-12-15T10:24:18.545Z,11.30
2018-12-15T10:26:46.434Z,11.27
2018-12-15T10:31:24.580Z,11.57
2018-12-15T10:33:52.159Z,10.47
2018-12-15T10:36:19.692Z,10.97
2018-12-15T10:38:47.128Z,10.83
2018-12-15T10:41:14.559Z,11.20
2018-12-15T10:43:42.043Z,12.57
2018-12-15T10:46:09.522Z,12.37
2018-12-15T10:48:37.156Z,11.53
2018-12-15T10:51:04.618Z,11.67
2018-12-15T10:53:32.571Z,12.07
2018-12-15T10:56:00.135Z,11.80
2018-12-15T10:58:27.618Z,10.33
2018-12-15T11:00:56.260Z,10.13
2018-12-15T11:03:23.973Z,10.63
2018-12-15T11:05:53.818Z,10.87
2018-12-15T11:08:21.476Z,11.50
2018-12-15T11:10:49.014Z,11.73
2018-12-15T11:13:16.553Z,11.83
2018-12-15T11:15:44.167Z,11.40
2018-12-15T11:18:11.673Z,11.03
2018-12-15T11:20:39.321Z,12.23
2018-12-15T11:23:06.863Z,10.17
2018-12-15T11:25:34.326Z,10.67
2018-12-15T11:28:01.886Z,10.97
2018-12-15T11:30:29.562Z,11.07
2018-12-15T11:32:57.206Z,10.60
2018-12-15T11:35:24.696Z,12.10
2018-12-15T11:37:52.263Z,10.67
2018-12-15T11:40:19.911Z,10.80
2018-12-15T11:42:47.536Z,11.00
2018-12-15T11:45:15.062Z,10.17
2018-12-15T11:47:42.831Z,9.80
2018-12-15T11:50:10.508Z,10.07
2018-12-15T11:52:38.115Z,11.13
2018-12-15T11:55:05.648Z,9.97
2018-12-15T11:57:33.133Z,10.93
2018-12-15T12:00:00.747Z,9.97
2018-12-15T12:02:31.902Z,11.57
2018-12-15T12:04:58.199Z,11.47
2018-12-15T12:07:25.884Z,11.17
2018-12-15T12:09:53.632Z,9.93
2018-12-15T12:12:21.213Z,11.20
2018-12-15T12:14:48.894Z,15.27
2018-12-15T12:17:16.750Z,12.17
2018-12-15T12:19:49.986Z,12.33
2018-12-15T12:22:13.973Z,12.13
2018-12-15T12:24:41.537Z,10.50
2018-12-15T12:27:08.958Z,9.60
2018-12-15T12:29:37.430Z,10.83
2018-12-15T12:32:05.376Z,10.40
2018-12-15T12:34:33.010Z,10.43
2018-12-15T12:37:20.982Z,9.57
2018-12-15T12:39:48.640Z,9.83
2018-12-15T12:42:18.140Z,10.77
2018-12-15T12:44:45.777Z,10.43
2018-12-15T12:47:13.418Z,10.03
2018-12-15T12:49:40.960Z,9.93
2018-12-15T12:52:08.712Z,10.73
2018-12-15T12:54:36.543Z,9.17
2018-12-15T12:57:04.185Z,9.33
2018-12-15T12:59:31.829Z,9.70
2018-12-15T13:01:59.557Z,10.03
2018-12-15T13:04:27.357Z,9.33
2018-12-15T13:06:54.906Z,10.77
2018-12-15T13:09:22.549Z,11.03
2018-12-15T13:11:50.060Z,10.40
2018-12-15T13:14:17.650Z,11.33
2018-12-15T13:16:45.255Z,10.73
2018-12-15T13:19:16.191Z,9.50
2018-12-15T13:21:44.224Z,9.53
2018-12-15T13:24:11.958Z,9.20
2018-12-15T13:26:39.585Z,9.83
2018-12-15T13:29:07.261Z,10.13
2018-12-15T13:31:35.096Z,10.50
2018-12-15T13:34:03.459Z,10.93
2018-12-15T13:36:32.032Z,9.93
2018-12-15T13:38:59.735Z,9.10
2018-12-15T13:41:27.259Z,9.23
2018-12-15T13:43:54.817Z,9.87
2018-12-15T13:46:22.450Z,10.37
2018-12-15T13:48:50.142Z,9.87
2018-12-15T13:51:17.705Z,11.03
2018-12-15T13:53:45.385Z,10.57
2018-12-15T13:56:13.519Z,9.77
2018-12-15T13:58:41.223Z,10.10
2018-12-15T14:01:08.853Z,10.30
2018-12-15T14:03:36.623Z,10.80
2018-12-15T14:06:04.769Z,10.50
2018-12-15T14:08:32.426Z,10.60
2018-12-15T14:11:00.270Z,10.53
2018-12-15T14:13:28.567Z,10.47
2018-12-15T14:15:57.712Z,10.80
2018-12-15T14:18:25.645Z,9.40
2018-12-15T14:20:53.540Z,10.83
2018-12-15T14:23:21.278Z,10.53
2018-12-15T14:25:49.032Z,10.67
2018-12-15T14:28:16.664Z,10.93
2018-12-15T14:30:44.150Z,11.00
2018-12-15T14:33:13.817Z,10.13
2018-12-15T14:35:41.637Z,9.47
2018-12-15T14:38:09.278Z,10.73
2018-12-15T14:40:37.018Z,11.60
2018-12-15T14:43:05.510Z,11.87
2018-12-15T14:45:33.460Z,11.07
2018-12-15T14:48:01.252Z,10.83
2018-12-15T14:50:28.783Z,12.23
2018-12-15T14:52:56.864Z,11.93
2018-12-15T14:55:24.863Z,12.20
2018-12-15T14:57:52.604Z,11.63
2018-12-15T15:00:20.494Z,12.00
2018-12-15T15:02:48.130Z,11.10
2018-12-15T15:05:15.658Z,14.53
2018-12-15T15:07:43.068Z,11.50
2018-12-15T15:10:10.600Z,14.57
2018-12-15T15:12:38.123Z,12.43
2018-12-15T15:15:05.700Z,10.80
2018-12-15T15:17:33.215Z,12.30
2018-12-15T15:20:00.683Z,11.37
2018-12-15T15:22:28.146Z,11.80
2018-12-15T15:24:55.568Z,11.93
2018-12-15T15:27:22.986Z,12.50
2018-12-15T15:29:50.365Z,11.90
2018-12-15T15:32:17.736Z,12.37
2018-12-15T15:34:45.182Z,11.47
2018-12-15T15:37:12.625Z,12.43
2018-12-15T15:39:39.997Z,11.73
2018-12-15T15:42:07.343Z,12.00
2018-12-15T15:44:34.841Z,11.17
2018-12-15T15:47:02.260Z,12.37
2018-12-15T15:49:29.677Z,10.63
2018-12-15T15:51:57.151Z,12.23
2018-12-15T15:54:24.569Z,11.60
2018-12-15T15:56:51.976Z,11.97
2018-12-15T15:59:19.460Z,11.83
2018-12-15T16:01:46.997Z,12.10
2018-12-15T16:04:14.453Z,13.13
2018-12-15T16:06:41.817Z,14.10
2018-12-15T16:09:09.394Z,13.00
2018-12-15T16:11:37.209Z,13.63
2018-12-15T16:14:04.742Z,12.57
2018-12-15T16:16:33.749Z,16.80
2018-12-15T16:19:01.324Z,12.87
2018-12-15T16:21:28.861Z,12.17
2018-12-15T16:23:56.401Z,12.30
2018-12-15T16:26:23.925Z,12.73
2018-12-15T16:28:51.501Z,12.27
2018-12-15T16:34:15.356Z,11.57
2018-12-15T16:36:42.984Z,12.00
2018-12-15T16:39:10.557Z,12.00
2018-12-15T16:41:42.175Z,13.07
2018-12-15T16:44:07.717Z,13.53
2018-12-15T16:46:35.389Z,12.80
2018-12-15T16:49:03.097Z,13.77
2018-12-15T16:51:30.668Z,11.97
2018-12-15T16:53:58.165Z,12.90
2018-12-15T16:56:26.345Z,12.27
2018-12-15T16:58:53.917Z,11.60
2018-12-15T17:01:21.653Z,13.00
2018-12-15T17:03:49.149Z,11.87
2018-12-15T17:06:16.703Z,11.90
2018-12-15T17:08:44.309Z,11.37
2018-12-15T17:11:12.016Z,11.70
2018-12-15T17:13:39.777Z,11.40
2018-12-15T17:16:07.597Z,11.40
2018-12-15T17:18:35.127Z,12.70
2018-12-15T17:21:02.709Z,11.20
2018-12-15T17:23:30.838Z,11.63
2018-12-15T17:25:58.456Z,13.27
2018-12-15T17:28:26.237Z,13.20
2018-12-15T17:30:53.809Z,12.07
2018-12-15T17:33:21.319Z,13.37
2018-12-15T17:35:48.894Z,12.50
2018-12-15T17:38:16.604Z,13.10
2018-12-15T17:40:44.181Z,13.23
2018-12-15T17:43:11.742Z,12.10
2018-12-15T17:45:39.481Z,12.13
2018-12-15T17:48:06.992Z,13.17
2018-12-15T17:50:34.450Z,13.30
2018-12-15T17:53:01.996Z,18.37
2018-12-15T17:55:29.441Z,12.63
2018-12-15T17:57:57.174Z,10.87
2018-12-15T18:00:24.874Z,12.13
2018-12-15T18:02:52.354Z,10.93
2018-12-15T18:05:19.896Z,10.70
2018-12-15T18:07:48.347Z,9.90
2018-12-15T18:10:15.969Z,10.93
2018-12-15T18:12:43.556Z,10.30
2018-12-15T18:15:11.379Z,12.03
2018-12-15T18:17:38.950Z,11.13
2018-12-15T18:20:07.540Z,9.93
2018-12-15T18:22:35.158Z,10.17
2018-12-15T18:25:02.973Z,10.90
2018-12-15T18:27:30.624Z,10.10
2018-12-15T18:29:58.246Z,11.60
2018-12-15T18:32:25.770Z,11.97
2018-12-15T18:34:53.416Z,10.43
2018-12-15T18:37:21.100Z,10.57
2018-12-15T18:39:48.649Z,11.60
2018-12-15T18:42:16.293Z,11.33
2018-12-15T18:44:43.970Z,10.43
2018-12-15T18:47:11.691Z,10.53
2018-12-15T18:49:39.318Z,10.53
2018-12-15T18:52:07.078Z,9.00
2018-12-15T18:54:34.766Z,10.30
2018-12-15T18:57:02.383Z,10.00
2018-12-15T18:59:30.180Z,10.43
2018-12-15T19:01:57.808Z,10.10
2018-12-15T19:04:25.467Z,10.10
2018-12-15T19:06:53.024Z,9.87
2018-12-15T19:09:20.532Z,9.63
2018-12-15T19:11:48.053Z,9.70
2018-12-15T19:14:15.561Z,9.60
2018-12-15T19:16:43.106Z,9.80
2018-12-15T19:19:10.551Z,9.83
2018-12-15T19:21:38.170Z,10.30
2018-12-15T19:24:05.736Z,13.07
2018-12-15T19:26:33.192Z,11.67
2018-12-15T19:29:00.632Z,11.77
2018-12-15T19:31:28.065Z,13.80
2018-12-15T19:33:55.513Z,11.83
2018-12-15T19:36:22.995Z,12.97
2018-12-15T19:38:50.673Z,11.90
2018-12-15T19:41:18.202Z,9.80
2018-12-15T19:43:46.378Z,11.47
2018-12-15T19:46:14.784Z,10.63
2018-12-15T19:48:42.865Z,10.23
2018-12-15T19:51:10.355Z,10.43
2018-12-15T19:53:37.813Z,11.20
2018-12-15T19:56:05.195Z,10.93
2018-12-15T19:58:32.639Z,11.17
2018-12-15T20:01:00.117Z,10.10
2018-12-15T20:03:27.559Z,11.23
2018-12-15T20:05:55.041Z,11.20
2018-12-15T20:08:23.177Z,10.53
2018-12-15T20:10:50.580Z,10.90
2018-12-15T20:13:18.073Z,11.03
2018-12-15T20:15:45.582Z,11.23
2018-12-15T20:18:13.056Z,10.40
2018-12-15T20:20:40.511Z,10.40
2018-12-15T20:23:07.921Z,10.43
2018-12-15T20:25:35.525Z,10.90
2018-12-15T20:28:04.467Z,10.77
2018-12-15T20:30:31.921Z,16.52
2018-12-15T20:32:59.413Z,14.97
2018-12-15T20:35:26.829Z,13.93
2018-12-15T20:37:54.297Z,13.20
2018-12-15T20:40:21.804Z,13.70
2018-12-15T20:42:49.244Z,12.67
2018-12-15T20:45:16.701Z,12.27
2018-12-15T20:47:44.148Z,12.63
2018-12-15T20:50:11.651Z,12.93
2018-12-15T20:52:39.108Z,14.13
2018-12-15T20:55:06.523Z,12.60
2018-12-15T20:57:33.933Z,14.67
2018-12-15T21:00:01.328Z,14.07
2018-12-15T21:02:28.775Z,18.53
2018-12-15T21:04:56.207Z,14.93
2018-12-15T21:07:23.688Z,16.00
2018-12-15T21:09:51.141Z,14.50
2018-12-15T21:12:18.619Z,14.70
2018-12-15T21:14:46.387Z,16.00
2018-12-15T21:17:13.893Z,15.57
2018-12-15T21:19:47.682Z,13.17
2018-12-15T21:22:10.828Z,13.07
2018-12-15T21:24:38.250Z,13.17
2018-12-15T21:27:06.063Z,13.57
2018-12-15T21:29:33.550Z,13.73
2018-12-15T21:32:00.977Z,13.53
2018-12-15T21:34:28.553Z,14.47
2018-12-15T21:36:55.996Z,13.37
2018-12-15T21:39:23.455Z,12.37
2018-12-15T21:41:57.608Z,12.87
2018-12-15T21:44:25.180Z,13.63
2018-12-15T21:46:53.078Z,13.47
2018-12-15T21:49:20.535Z,11.93
2018-12-15T21:51:47.986Z,12.90
2018-12-15T21:54:15.413Z,12.50
2018-12-15T21:56:42.866Z,13.90
2018-12-15T21:59:10.316Z,12.80
2018-12-15T22:01:37.822Z,12.70
2018-12-15T22:04:05.221Z,13.10
2018-12-15T22:06:32.669Z,11.70
2018-12-15T22:09:00.102Z,11.13
2018-12-15T22:11:27.640Z,12.47
2018-12-15T22:13:55.106Z,12.10
2018-12-15T22:16:23.486Z,11.83
2018-12-15T22:18:50.944Z,11.37
2018-12-15T22:21:18.454Z,12.27
2018-12-15T22:23:45.920Z,11.67
2018-12-15T22:26:13.293Z,11.07
2018-12-15T22:28:40.790Z,11.13
2018-12-15T22:31:08.200Z,11.67
2018-12-15T22:33:35.687Z,11.97
2018-12-15T22:36:03.162Z,12.27
2018-12-15T22:38:30.602Z,12.20
2018-12-15T22:40:57.987Z,11.83
2018-12-15T22:43:26.897Z,12.47
2018-12-15T22:45:54.344Z,12.33
2018-12-15T22:48:23.098Z,12.43
2018-12-15T22:50:50.497Z,11.90
2018-12-15T22:53:17.898Z,11.37
2018-12-15T22:55:45.366Z,11.80
2018-12-15T22:58:12.775Z,12.27
2018-12-15T23:00:46.640Z,12.23
2018-12-15T23:03:20.827Z,11.30
2018-12-15T23:05:48.401Z,12.53
2018-12-15T23:08:17.068Z,11.20
2018-12-15T23:19:08.507Z,12.90
2018-12-15T23:21:36.478Z,12.47
2018-12-15T23:24:20.940Z,11.20
2018-12-15T23:29:42.725Z,11.20
2018-12-15T23:32:10.214Z,11.37
2018-12-15T23:34:37.830Z,11.50
2018-12-15T23:37:05.400Z,11.60
2018-12-15T23:39:32.938Z,10.10
2018-12-15T23:42:00.660Z,11.33
2018-12-15T23:44:28.252Z,11.40
2018-12-15T23:46:56.100Z,11.27
2018-12-15T23:49:23.537Z,10.83
2018-12-15T23:51:51.262Z,11.00
2018-12-15T23:54:18.930Z,10.30
2018-12-15T23:56:46.854Z,10.97
2018-12-15T23:59:14.414Z,10.77
